Historyczne dane pomiarowe

Dodano dane terminowe – wersja testowa.

Dane z okresu 1951-2019

Wersja bazy: 1.34 [2019-03-16, lista zmian], aktualizacja planowana na 2019-04-15

Dane meteo z obszaru Polski uzyskane na podstawie danych udostępnionych przez Instytut Meteorologii i Gospodarki Wodnej – Państwowy Instytut Badawczy.

 

Wybierz Datę:    

       

TemperaturaWilgotnośćWiatrCiśnienieOpadyŚniegCzas trwania zjawisk
 Stacja t tx tn tng RH VA  wxwx mslp ppp RRR   cm mm wxwxwxwxwxwxwx
1961-08-14 12.9 19.7 7.3- 86.8- 4.7 1.3---- 0.0------------
1961-08-13 14.0 19.2 12.3- 96.5- 8.0 2.3---- 3.9------------
1961-08-12 19.9 25.7 15.7- 88.8- 4.0 1.7---- 14.3------------
1961-08-11 26.2 33.7 18.7- 68.0- 3.3 3.0---- 2.8------------
1961-08-10 23.6 29.3 18.7- 80.8- 3.0 3.0---- 0.0------------
1961-08-09 22.0 29.7 14.5- 79.8- 0.7 1.0---- 3.4------------
1961-08-08 20.9 25.3 16.7- 75.8- 5.3 1.3---- 0.0------------
1961-08-07 22.7 30.5 13.4- 71.3- 0.0 2.0---- 0.0------------
1961-08-06 21.7 29.1 13.5- 73.5- 1.0 1.7---- 0.0------------
1961-08-05 17.0 22.9 12.6- 85.3- 4.7 2.0---- 0.0------------
1961-08-04 16.2 21.9 13.2- 82.8- 4.3 1.3---- 0.0------------
1961-08-03 18.4 26.3 9.6- 84.3- 3.7 1.0---- 12.5------------
1961-08-02 18.2 24.8 9.1- 77.0- 1.0 1.0---- 0.0------------
1961-08-01 16.3 21.8 10.4- 81.0- 3.7 1.3---- 0.0------------
1961-07-31 14.2 18.7 11.1- 85.8- 4.0 1.7---- 0.6------------
1961-07-30 13.5 17.7 11.9- 97.5- 6.0 1.0---- 14.0------------
1961-07-29 16.1 21.6 12.6- 88.0- 4.7 1.0---- 38.0------------
1961-07-28 21.0 28.3 14.7- 76.8- 4.3 1.3---- 0.0------------
1961-07-27 20.7 26.8 9.9- 67.5- 3.7 1.3---- 0.2------------
1961-07-26 15.3 20.9 6.9- 74.0- 4.3 1.0---- 0.0------------
1961-07-25 13.6 19.7 9.7- 79.8- 2.0 1.0---- 0.0------------
1961-07-24 14.2 19.2 12.0- 84.5- 5.7 1.0---- 0.0------------
1961-07-23 17.1 23.1 8.5- 74.0- 4.0 1.0---- 0.0------------
1961-07-22 15.4 20.7 10.9- 85.0- 3.3 1.3---- 2.0------------
1961-07-21 16.2 21.3 12.8- 89.5- 6.7 3.0---- 1.4------------
1961-07-20 15.8 21.9 6.2- 87.8- 6.7 1.7---- 23.6------------
1961-07-19 15.0 22.8 5.4- 84.5- 3.0 1.0---- 1.4------------
1961-07-18 14.6 20.7 8.8- 78.8- 4.0 1.3---- 0.0------------
1961-07-17 15.8 22.9 13.2- 88.3- 5.3 2.0---- 2.6------------
1961-07-16 18.7 26.0 11.4- 72.3- 6.0 3.7---- 2.1------------
1961-07-15 18.3 25.3 6.6- 73.0- 4.0 1.7---- 0.0------------
1961-07-14 14.1 21.9 12.2- 89.3- 5.0 2.0---- 0.8------------
1961-07-13 22.5 29.0 12.3- 66.3- 3.7 3.3---- 5.7------------
1961-07-12 18.3 27.5 10.2- 82.3- 5.0 1.3---- 5.3------------
1961-07-11 15.5 21.1 8.4- 71.3- 3.7 2.0---- 0.0------------
1961-07-10 13.4 20.1 10.7- 88.5- 7.7 2.0---- 0.7------------
1961-07-09 16.6 24.7 5.9- 70.8- 5.3 1.7---- 1.4------------
1961-07-08 14.6 21.1 8.1- 75.0- 3.7 1.0---- 0.0------------
1961-07-07 13.4 18.7 6.0- 76.3- 3.0 1.0---- 0.0------------
1961-07-06 13.4 19.8 9.1- 75.3- 4.7 2.0---- 0.0------------
1961-07-05 16.1 20.3 13.7- 79.0- 8.0 2.0---- 0.7------------
1961-07-04 22.7 31.5 11.4- 68.3- 6.0 1.3---- 0.0------------
1961-07-03 21.1 30.5 8.8- 69.5- 0.0 1.3---- 0.0------------
1961-07-02 20.4 28.3 7.1- 68.8- 0.7 0.7---- 0.0------------
1961-07-01 18.8 26.7 7.8- 73.8- 2.3 1.7---- 0.0------------
1961-06-30 17.2 23.3 11.6- 75.8- 4.3 0.3---- 0.0------------
1961-06-29 15.3 19.7 5.2- 73.8- 6.0 2.3---- 0.0------------
1961-06-28 14.8 23.3 10.8- 89.3- 4.0 2.0---- 1.8------------
1961-06-27 24.0 31.8 13.6- 66.5- 2.3 2.0---- 0.0------------
1961-06-26 22.3 30.7 12.2- 69.5- 4.0 2.0---- 0.0------------
1961-06-25 21.2 28.3 8.1- 68.8- 2.7 2.0---- 0.0------------
1961-06-24 18.0 25.3 10.5- 74.5- 5.3 2.0---- 0.0------------
1961-06-23 16.7 22.7 13.7- 90.8- 7.0 3.0---- 5.4------------
1961-06-22 17.0 23.3 8.5- 76.8- 3.0 2.0---- 0.0------------
1961-06-21 16.4 23.1 4.6- 70.5- 0.7 0.7---- 0.0------------
1961-06-20 16.2 21.5 12.0- 64.0- 3.3 2.0---- 0.0------------
1961-06-19 21.4 28.5 11.0- 75.5- 5.7 2.3---- 0.0------------
1961-06-18 17.8 25.3 7.3- 76.8- 4.7 1.3---- 0.0------------
1961-06-17 14.9 21.8 5.5- 80.8- 2.7 1.0---- 0.0------------
1961-06-16 13.9 19.3 8.4- 90.5- 0.7 2.0---- 0.0------------
315.3 ms

 

Źródłem pochodzenia danych jest Instytut Meteorologii i Gospodarki Wodnej – Państwowy Instytut Badawczy. Dane Instytutu Meteorologii i Gospodarki Wodnej – Państwowego Instytutu Badawczego zostały przetworzone.

Dane źródłowe można odnaleźć na stronie https://dane.imgw.pl